Time;durP1;ratioP1;P1;durP2;ratioP2;P2;SDS_P1;SDS_P2;PMS_P1;PMS_P2;Temp;Humidity;BMP_temperature;BMP_pressure;BME280_temperature;BME280_humidity;BME280_pressure;Samples;Min_cycle;Max_cycle;Signal;HPM_P1;HPM_P2
2023/07/29 00:00:00;;;;;;;9.98;5.05;;;;;;;18.39;100.00;100525.03;4987047;28;20051;-75
2023/07/29 00:02:29;;;;;;;11.32;5.15;;;;;;;18.35;100.00;100510.38;4987348;28;20066;-75
2023/07/29 00:04:56;;;;;;;13.38;5.07;;;;;;;18.38;100.00;100528.34;4978382;28;20060;-74
2023/07/29 00:07:22;;;;;;;12.32;5.65;;;;;;;18.31;100.00;100525.88;4986837;28;20177;-75
2023/07/29 00:09:49;;;;;;;11.18;5.60;;;;;;;18.24;100.00;100529.81;4985299;28;20054;-75
2023/07/29 00:12:16;;;;;;;12.60;5.40;;;;;;;18.22;100.00;100525.88;4987950;28;20073;-75
2023/07/29 00:14:42;;;;;;;11.07;5.68;;;;;;;18.19;100.00;100526.88;4991173;28;20047;-75
2023/07/29 00:17:09;;;;;;;11.57;5.13;;;;;;;18.16;100.00;100527.81;4995631;28;20050;-74
2023/07/29 00:19:35;;;;;;;11.57;5.90;;;;;;;18.06;100.00;100532.66;4990736;28;20149;-75
2023/07/29 00:22:02;;;;;;;9.93;4.85;;;;;;;18.08;100.00;100543.44;4996141;28;20058;-74
2023/07/29 00:24:29;;;;;;;10.35;4.53;;;;;;;18.06;100.00;100534.72;4993137;28;20514;-75
2023/07/29 00:26:55;;;;;;;10.48;4.78;;;;;;;18.05;100.00;100538.75;4991886;28;20073;-74
2023/07/29 00:29:22;;;;;;;11.70;4.88;;;;;;;18.00;100.00;100545.03;4993489;28;20082;-74
2023/07/29 00:31:48;;;;;;;10.13;4.28;;;;;;;17.94;100.00;100550.53;4989613;28;20077;-75
2023/07/29 00:34:19;;;;;;;7.55;4.28;;;;;;;17.95;100.00;100552.06;4991595;28;20060;-73
2023/07/29 00:36:46;;;;;;;9.45;4.75;;;;;;;17.93;100.00;100553.78;4991722;28;20516;-73
2023/07/29 00:39:12;;;;;;;12.05;4.70;;;;;;;17.96;100.00;100553.63;4998880;28;20089;-73
2023/07/29 00:41:39;;;;;;;13.38;5.10;;;;;;;17.97;100.00;100543.97;4990450;28;20480;-73
2023/07/29 00:44:06;;;;;;;10.27;4.72;;;;;;;17.98;100.00;100541.91;4994092;28;20101;-72
2023/07/29 00:46:35;;;;;;;13.43;4.90;;;;;;;17.99;100.00;100527.38;4994134;28;20133;-74
2023/07/29 00:49:02;;;;;;;10.73;4.95;;;;;;;17.99;100.00;100535.06;4994110;28;20050;-72
2023/07/29 00:51:29;;;;;;;11.43;5.57;;;;;;;18.02;100.00;100534.09;4989695;28;20117;-74
2023/07/29 00:53:56;;;;;;;11.43;4.78;;;;;;;18.01;100.00;100524.09;4986533;28;20050;-73
2023/07/29 00:56:22;;;;;;;11.10;4.80;;;;;;;18.03;100.00;100521.59;4991976;28;20047;-73
2023/07/29 00:58:51;;;;;;;8.98;4.72;;;;;;;18.03;100.00;100513.16;4993886;28;20057;-74
2023/07/29 01:01:18;;;;;;;10.65;4.68;;;;;;;17.97;100.00;100506.59;4988445;28;20086;-73
2023/07/29 01:03:45;;;;;;;13.00;4.63;;;;;;;17.90;100.00;100506.91;4975324;28;20146;-73
2023/07/29 01:06:41;;;;;;;8.85;4.65;;;;;;;17.87;100.00;100503.00;4987238;28;20092;-73
2023/07/29 01:09:20;;;;;;;7.03;4.20;;;;;;;17.87;100.00;100516.28;4969070;28;20160;-76
2023/07/29 01:11:56;;;;;;;10.10;4.20;;;;;;;17.86;100.00;100509.09;4989618;28;20077;-76
2023/07/29 01:14:41;;;;;;;9.10;4.20;;;;;;;17.86;100.00;100514.72;4989153;28;20475;-75
2023/07/29 01:17:13;;;;;;;9.80;4.63;;;;;;;17.87;100.00;100521.91;4987041;28;20136;-75
2023/07/29 01:19:55;;;;;;;11.13;5.18;;;;;;;17.88;100.00;100518.63;4995033;28;20120;-75
2023/07/29 01:22:24;;;;;;;11.00;4.75;;;;;;;17.88;100.00;100510.19;4987576;28;20100;-74
2023/07/29 01:24:50;;;;;;;12.18;5.53;;;;;;;17.90;100.00;100516.13;4981853;28;20082;-74
2023/07/29 01:27:17;;;;;;;12.70;5.25;;;;;;;17.92;100.00;100518.47;4989966;28;20112;-74
2023/07/29 01:29:43;;;;;;;11.25;5.15;;;;;;;17.92;100.00;100505.16;4997687;28;20404;-74
2023/07/29 01:32:19;;;;;;;16.60;5.43;;;;;;;17.96;100.00;100508.63;4988303;28;20066;-75
2023/07/29 01:34:48;;;;;;;;;;;;;;;18.01;100.00;100508.00;4990328;28;20074;-72
2023/07/29 01:37:20;;;;;;;11.45;5.10;;;;;;;18.00;100.00;100516.91;4987881;28;19918;-75
2023/07/29 01:39:50;;;;;;;11.18;5.22;;;;;;;18.02;100.00;100517.22;4987342;28;20076;-74
2023/07/29 01:42:17;;;;;;;9.57;4.80;;;;;;;18.04;100.00;100509.09;4988199;28;20054;-74
2023/07/29 01:44:44;;;;;;;10.70;5.50;;;;;;;18.07;100.00;100508.13;4991119;28;20046;-73
2023/07/29 01:47:10;;;;;;;12.98;5.85;;;;;;;18.10;100.00;100495.94;4990544;28;20137;-74
2023/07/29 01:49:37;;;;;;;12.70;5.68;;;;;;;18.14;100.00;100499.34;4991400;28;20136;-75
2023/07/29 01:52:04;;;;;;;11.57;5.30;;;;;;;18.14;100.00;100480.44;4992121;28;20081;-74
2023/07/29 01:54:30;;;;;;;11.25;5.00;;;;;;;18.15;100.00;100476.38;4990328;28;20050;-75
2023/07/29 01:56:57;;;;;;;13.57;5.50;;;;;;;18.17;100.00;100479.50;4989358;28;20078;-74
2023/07/29 01:59:23;;;;;;;13.57;5.25;;;;;;;18.19;100.00;100473.41;4989568;28;20085;-74
2023/07/29 02:01:49;;;;;;;13.95;5.45;;;;;;;18.17;100.00;100481.53;4990705;28;20078;-74
2023/07/29 02:04:16;;;;;;;9.57;5.28;;;;;;;18.12;100.00;100477.31;4989218;28;20100;-74
2023/07/29 02:06:43;;;;;;;9.27;5.18;;;;;;;18.08;100.00;100473.91;4988976;28;20057;-75
2023/07/29 02:09:09;;;;;;;12.13;5.25;;;;;;;18.09;100.00;100466.25;4989688;28;20058;-74
2023/07/29 02:11:36;;;;;;;12.00;5.85;;;;;;;18.10;100.00;100473.44;4989929;28;20054;-74
2023/07/29 02:14:03;;;;;;;10.93;6.18;;;;;;;18.11;100.00;100472.97;4989587;28;20050;-74
2023/07/29 02:16:29;;;;;;;11.93;5.53;;;;;;;18.06;100.00;100472.81;4991014;28;20112;-74
2023/07/29 02:18:56;;;;;;;10.23;5.38;;;;;;;18.08;100.00;100475.94;4982896;28;20070;-74
2023/07/29 02:21:22;;;;;;;11.43;6.00;;;;;;;18.06;100.00;100478.47;4984556;28;20125;-74
2023/07/29 02:23:49;;;;;;;14.82;6.60;;;;;;;18.04;100.00;100476.13;4985704;28;20113;-73
2023/07/29 02:26:16;;;;;;;19.52;6.15;;;;;;;18.04;100.00;100464.88;4989584;28;20072;-74
2023/07/29 02:28:43;;;;;;;15.30;6.55;;;;;;;18.07;100.00;100458.28;4990491;28;20153;-74
2023/07/29 02:31:16;;;;;;;13.30;6.35;;;;;;;18.09;100.00;100452.19;4989663;28;20121;-74
2023/07/29 02:33:44;;;;;;;13.90;6.20;;;;;;;18.07;100.00;100463.13;4986538;28;20073;-74
2023/07/29 02:36:12;;;;;;;12.38;6.20;;;;;;;18.05;100.00;100460.78;4986337;28;20054;-74
2023/07/29 02:38:40;;;;;;;12.65;6.45;;;;;;;18.02;100.00;100455.34;4977230;28;20054;-74
2023/07/29 02:41:12;;;;;;;15.75;6.45;;;;;;;18.05;100.00;100445.94;4992868;28;20046;-73
2023/07/29 02:43:40;;;;;;;13.88;6.18;;;;;;;18.05;100.00;100448.75;4988789;28;20109;-74
2023/07/29 02:46:07;;;;;;;13.23;6.10;;;;;;;17.99;100.00;100453.47;4989352;28;20120;-75
2023/07/29 02:48:34;;;;;;;14.75;6.50;;;;;;;17.94;100.00;100454.13;4988589;28;20133;-75
2023/07/29 02:51:00;;;;;;;14.48;6.38;;;;;;;17.96;100.00;100472.06;4988795;28;20502;-74
2023/07/29 02:53:27;;;;;;;14.60;5.90;;;;;;;17.90;100.00;100476.75;4988866;28;20050;-75
2023/07/29 02:55:54;;;;;;;13.75;5.30;;;;;;;17.86;100.00;100472.56;4988111;28;20137;-75
2023/07/29 02:58:20;;;;;;;10.73;5.32;;;;;;;17.97;100.00;100481.28;4985127;28;20564;-73
2023/07/29 03:00:48;;;;;;;12.70;5.97;;;;;;;18.02;100.00;100472.22;4988928;28;20054;-74
2023/07/29 03:03:15;;;;;;;10.32;5.90;;;;;;;18.05;100.00;100474.84;4984414;28;20133;-74
2023/07/29 03:05:41;;;;;;;11.90;6.18;;;;;;;18.03;100.00;100468.94;4987922;28;20049;-74
2023/07/29 03:08:08;;;;;;;12.45;5.82;;;;;;;17.94;100.00;100471.78;4989175;28;20046;-75
2023/07/29 03:10:38;;;;;;;12.15;6.43;;;;;;;17.87;100.00;100471.28;4988559;28;20081;-75
2023/07/29 03:13:05;;;;;;;16.10;6.65;;;;;;;17.94;100.00;100480.22;4986210;28;20101;-74
2023/07/29 03:15:33;;;;;;;13.85;6.07;;;;;;;17.93;100.00;100487.09;4970686;28;20050;-75
2023/07/29 03:18:00;;;;;;;11.40;6.25;;;;;;;17.94;100.00;100493.47;4988494;28;20051;-75
2023/07/29 03:20:27;;;;;;;11.73;6.38;;;;;;;17.99;100.00;100496.44;4986900;28;20042;-75
2023/07/29 03:22:53;;;;;;;11.68;5.72;;;;;;;17.94;100.00;100499.09;4987195;28;20137;-74
2023/07/29 03:25:20;;;;;;;12.90;6.07;;;;;;;17.97;100.00;100484.09;4988116;28;20120;-75
2023/07/29 03:27:49;;;;;;;14.07;5.70;;;;;;;17.90;100.00;100496.44;4988373;28;20470;-74
2023/07/29 03:30:21;;;;;;;14.13;6.13;;;;;;;17.98;100.00;100492.06;4986655;28;20141;-74
2023/07/29 03:32:48;;;;;;;13.57;7.10;;;;;;;18.00;100.00;100474.72;4987301;28;20124;-74
2023/07/29 03:35:15;;;;;;;11.93;5.95;;;;;;;17.93;100.00;100480.66;4986898;28;20082;-74
2023/07/29 03:37:42;;;;;;;17.15;6.80;;;;;;;17.94;100.00;100485.84;4989175;28;20047;-75
2023/07/29 03:40:09;;;;;;;12.27;6.60;;;;;;;17.94;100.00;100482.22;4987631;28;20424;-74
2023/07/29 03:42:36;;;;;;;11.38;6.38;;;;;;;17.93;100.00;100487.09;4985035;28;20128;-74
2023/07/29 03:45:03;;;;;;;11.85;6.40;;;;;;;17.94;100.00;100485.03;4988537;28;20133;-74
2023/07/29 03:47:29;;;;;;;14.35;6.55;;;;;;;17.96;100.00;100488.19;4987253;28;20062;-74
2023/07/29 03:49:56;;;;;;;12.30;6.25;;;;;;;17.93;100.00;100484.28;4971018;28;20084;-74
2023/07/29 03:52:22;;;;;;;11.77;5.65;;;;;;;17.94;100.00;100483.03;4987435;28;20061;-74
2023/07/29 03:54:49;;;;;;;12.88;6.10;;;;;;;17.95;100.00;100490.19;4980329;28;20057;-75
2023/07/29 03:57:16;;;;;;;13.07;5.85;;;;;;;17.94;100.00;100480.22;4986922;28;20058;-75
2023/07/29 03:59:42;;;;;;;12.40;6.38;;;;;;;18.00;100.00;100474.72;4987194;28;20050;-74
2023/07/29 04:02:09;;;;;;;13.50;6.65;;;;;;;17.97;100.00;100475.66;4986648;28;20474;-73
2023/07/29 04:04:35;;;;;;;14.75;6.07;;;;;;;18.03;100.00;100470.97;4986687;28;20057;-74
2023/07/29 04:07:02;;;;;;;12.30;6.93;;;;;;;17.99;100.00;100467.53;4987396;28;20117;-74
2023/07/29 04:09:29;;;;;;;16.23;8.02;;;;;;;18.08;100.00;100464.69;4988917;28;20108;-73
2023/07/29 04:11:55;;;;;;;15.98;7.68;;;;;;;18.09;100.00;100467.00;4987274;28;20530;-74
2023/07/29 04:14:22;;;;;;;17.17;7.78;;;;;;;18.02;100.00;100461.72;4987757;28;20096;-73
2023/07/29 04:16:49;;;;;;;14.40;7.25;;;;;;;18.08;100.00;100462.66;4987244;28;20093;-73
2023/07/29 04:19:15;;;;;;;14.95;7.88;;;;;;;18.07;100.00;100457.50;4987118;28;20046;-74
2023/07/29 04:21:42;;;;;;;14.13;7.50;;;;;;;18.10;100.00;100470.63;4986342;28;20186;-74
2023/07/29 04:24:08;;;;;;;16.67;7.95;;;;;;;18.04;100.00;100473.31;4987390;28;20105;-74
2023/07/29 04:26:35;;;;;;;19.17;8.90;;;;;;;18.08;100.00;100468.28;4987515;28;20062;-74
2023/07/29 04:29:02;;;;;;;18.08;8.93;;;;;;;18.13;100.00;100475.31;4986666;28;20046;-74
2023/07/29 04:31:28;;;;;;;18.83;8.85;;;;;;;18.04;100.00;100459.25;4984711;28;20775;-74
2023/07/29 04:33:55;;;;;;;17.10;8.65;;;;;;;18.09;100.00;100452.94;4990419;28;20139;-74
2023/07/29 04:36:22;;;;;;;16.17;9.02;;;;;;;18.16;100.00;100446.22;4985293;28;20129;-74
2023/07/29 04:38:48;;;;;;;16.38;9.23;;;;;;;18.10;100.00;100454.53;4980776;28;20046;-74
2023/07/29 04:41:15;;;;;;;14.93;7.57;;;;;;;18.04;100.00;100455.63;4986710;28;20051;-74
2023/07/29 04:43:41;;;;;;;15.13;7.90;;;;;;;18.06;100.00;100473.59;4985077;28;20601;-74
2023/07/29 04:46:09;;;;;;;18.10;7.93;;;;;;;18.04;100.00;100484.56;4985954;28;20112;-73
2023/07/29 04:48:36;;;;;;;12.68;6.88;;;;;;;18.01;100.00;100485.50;4987005;28;20415;-74
2023/07/29 04:51:02;;;;;;;19.67;7.30;;;;;;;17.96;100.00;100491.00;4987017;28;20054;-74
2023/07/29 04:53:29;;;;;;;14.32;7.10;;;;;;;18.00;100.00;100502.84;4984828;28;20077;-73
2023/07/29 04:55:55;;;;;;;18.08;8.00;;;;;;;18.09;100.00;100500.00;4970435;28;20506;-74
2023/07/29 04:58:22;;;;;;;16.30;6.18;;;;;;;17.97;100.00;100492.53;4986184;28;20101;-73
2023/07/29 05:00:49;;;;;;;6.95;3.25;;;;;;;17.91;100.00;100500.03;4990798;28;20494;-74
2023/07/29 05:03:16;;;;;;;12.25;6.20;;;;;;;18.03;100.00;100487.84;4989672;28;20536;-73
2023/07/29 05:05:42;;;;;;;12.80;5.90;;;;;;;18.06;100.00;100484.84;4973106;28;20082;-72
2023/07/29 05:08:09;;;;;;;13.98;5.20;;;;;;;18.02;100.00;100486.28;4990523;28;20053;-74
2023/07/29 05:10:35;;;;;;;15.32;5.00;;;;;;;17.93;100.00;100486.28;4991231;28;20085;-73
2023/07/29 05:13:02;;;;;;;14.60;5.97;;;;;;;18.00;100.00;100485.97;4989064;28;20050;-74
2023/07/29 05:15:29;;;;;;;7.65;3.38;;;;;;;17.82;100.00;100486.75;4989691;28;20054;-73
2023/07/29 05:17:56;;;;;;;17.48;6.63;;;;;;;18.00;100.00;100469.09;4989022;28;20515;-74
2023/07/29 05:20:22;;;;;;;15.00;7.20;;;;;;;17.94;100.00;100452.09;4988596;28;20046;-74
2023/07/29 05:22:49;;;;;;;13.65;6.45;;;;;;;17.99;100.00;100445.03;4982268;28;20054;-73
2023/07/29 05:25:15;;;;;;;14.23;6.25;;;;;;;17.91;100.00;100422.06;4988903;28;20097;-73
2023/07/29 05:27:42;;;;;;;15.98;7.03;;;;;;;17.92;100.00;100409.56;4990866;28;20149;-75
2023/07/29 05:30:08;;;;;;;13.38;6.38;;;;;;;17.94;100.00;100421.16;4990971;28;20538;-74
2023/07/29 05:32:37;;;;;;;11.65;6.20;;;;;;;17.91;100.00;100421.28;4971829;28;20611;-73
2023/07/29 05:35:04;;;;;;;9.52;3.33;;;;;;;17.77;100.00;100419.16;4991052;28;20601;-74
2023/07/29 05:37:31;;;;;;;13.90;5.03;;;;;;;17.69;100.00;100421.53;4988454;28;20050;-74
2023/07/29 05:39:57;;;;;;;16.88;5.10;;;;;;;17.70;100.00;100422.28;4992070;28;20081;-73
2023/07/29 05:42:24;;;;;;;15.27;5.72;;;;;;;17.75;100.00;100428.06;4990757;28;20054;-74
2023/07/29 05:44:50;;;;;;;9.55;3.35;;;;;;;17.61;100.00;100445.59;4972422;28;20113;-74
2023/07/29 05:47:17;;;;;;;12.18;4.25;;;;;;;17.68;100.00;100447.31;4988299;28;20081;-74
2023/07/29 05:49:43;;;;;;;11.93;4.47;;;;;;;17.80;100.00;100447.09;4990061;28;21067;-74
2023/07/29 05:52:10;;;;;;;14.13;4.80;;;;;;;17.67;100.00;100445.72;4988026;28;20084;-74
2023/07/29 05:54:36;;;;;;;13.35;4.90;;;;;;;17.73;100.00;100438.22;4983894;28;20078;-74
2023/07/29 05:57:04;;;;;;;10.23;4.20;;;;;;;17.64;100.00;100441.03;4990200;28;20077;-73
2023/07/29 05:59:30;;;;;;;12.13;3.92;;;;;;;17.70;100.00;100450.41;4990212;28;20105;-74
2023/07/29 06:01:57;;;;;;;7.60;3.00;;;;;;;17.64;100.00;100444.66;4972543;28;20540;-74
2023/07/29 06:04:23;;;;;;;5.28;2.60;;;;;;;17.51;100.00;100441.22;4989618;28;20066;-74
2023/07/29 06:06:50;;;;;;;8.13;3.10;;;;;;;17.68;100.00;100431.19;4971451;28;20066;-75
2023/07/29 06:09:17;;;;;;;6.35;2.67;;;;;;;17.64;100.00;100430.59;4989522;28;20050;-74
2023/07/29 06:11:43;;;;;;;6.43;2.55;;;;;;;17.63;100.00;100422.63;4987699;28;20057;-73
2023/07/29 06:14:10;;;;;;;5.78;2.50;;;;;;;17.68;100.00;100427.63;4989147;28;20074;-74
2023/07/29 06:16:36;;;;;;;4.70;2.45;;;;;;;17.71;100.00;100421.03;4989091;28;20507;-75
2023/07/29 06:19:03;;;;;;;4.63;1.95;;;;;;;17.43;100.00;100426.72;4987598;28;20680;-75
2023/07/29 06:21:30;;;;;;;6.75;2.80;;;;;;;17.47;100.00;100422.97;4986370;28;20129;-75
2023/07/29 06:23:56;;;;;;;4.72;2.20;;;;;;;17.55;100.00;100432.66;4987981;28;20086;-76
2023/07/29 06:26:23;;;;;;;5.85;2.25;;;;;;;17.55;100.00;100433.41;4989488;28;20050;-74
2023/07/29 06:28:50;;;;;;;4.63;2.00;;;;;;;17.40;100.00;100426.91;4982242;28;20050;-75
2023/07/29 06:31:16;;;;;;;5.07;2.10;;;;;;;17.58;100.00;100442.97;4990361;28;20518;-74
2023/07/29 06:33:43;;;;;;;2.50;1.13;;;;;;;17.49;100.00;100438.13;4987903;28;20046;-75
2023/07/29 06:36:10;;;;;;;4.45;2.40;;;;;;;17.62;100.00;100443.56;4989020;28;20046;-75
2023/07/29 06:38:38;;;;;;;7.68;2.30;;;;;;;17.68;100.00;100447.31;4989693;28;20066;-74
2023/07/29 06:41:05;;;;;;;5.97;2.20;;;;;;;17.72;100.00;100437.44;4986258;28;20962;-75
2023/07/29 06:43:31;;;;;;;5.82;2.40;;;;;;;17.67;100.00;100451.34;4967124;28;20054;-76
2023/07/29 06:45:58;;;;;;;2.72;1.30;;;;;;;17.55;100.00;100452.31;4987866;28;20060;-74
2023/07/29 06:48:25;;;;;;;5.55;2.50;;;;;;;17.55;100.00;100441.09;4989138;28;20077;-73
2023/07/29 06:50:52;;;;;;;7.50;2.17;;;;;;;17.75;100.00;100435.72;4984639;28;20054;-74
2023/07/29 06:53:18;;;;;;;8.52;2.95;;;;;;;17.77;100.00;100438.81;4990424;28;20096;-76
2023/07/29 06:55:45;;;;;;;4.68;1.90;;;;;;;17.74;100.00;100446.19;4984973;28;20065;-73
2023/07/29 06:58:11;;;;;;;6.55;2.70;;;;;;;17.79;100.00;100442.72;4987930;28;20494;-74
2023/07/29 07:00:38;;;;;;;8.02;2.90;;;;;;;17.87;100.00;100437.53;4988324;28;20335;-73
2023/07/29 07:03:04;;;;;;;9.90;3.63;;;;;;;17.89;100.00;100435.06;4987286;28;20058;-74
2023/07/29 07:05:32;;;;;;;9.52;3.55;;;;;;;18.00;100.00;100432.53;4987333;28;20061;-76
2023/07/29 07:07:59;;;;;;;11.40;3.53;;;;;;;17.97;100.00;100433.47;4987905;28;20082;-76
2023/07/29 07:10:25;;;;;;;8.45;3.05;;;;;;;17.84;100.00;100438.50;4988576;28;20137;-75
2023/07/29 07:12:52;;;;;;;10.77;3.83;;;;;;;17.88;100.00;100434.25;4987387;28;20058;-75
2023/07/29 07:15:18;;;;;;;10.63;3.72;;;;;;;17.82;100.00;100435.38;4987846;28;20105;-74
2023/07/29 07:17:45;;;;;;;10.45;3.15;;;;;;;17.94;100.00;100435.22;4988145;28;20113;-74
2023/07/29 07:20:11;;;;;;;9.70;3.50;;;;;;;17.92;100.00;100434.88;4987561;28;20051;-75
2023/07/29 07:22:39;;;;;;;9.35;3.40;;;;;;;17.94;100.00;100434.41;4969877;28;20565;-74
2023/07/29 07:25:06;;;;;;;8.55;2.60;;;;;;;17.88;100.00;100434.25;4986665;28;20518;-74
2023/07/29 07:27:35;;;;;;;3.08;1.98;;;;;;;17.75;100.00;100442.09;4986687;28;20146;-74
2023/07/29 07:30:01;;;;;;;6.70;3.00;;;;;;;17.94;100.00;100431.63;4987069;28;20224;-75
2023/07/29 07:32:28;;;;;;;12.73;2.85;;;;;;;18.03;100.00;100429.56;4971563;28;20087;-75
2023/07/29 07:34:54;;;;;;;4.72;2.08;;;;;;;18.06;100.00;100434.22;4986119;28;20061;-75
2023/07/29 07:37:21;;;;;;;10.68;2.90;;;;;;;18.09;100.00;100430.44;4988131;28;20077;-72
2023/07/29 07:39:47;;;;;;;6.45;2.03;;;;;;;18.14;100.00;100429.81;4988817;28;20073;-74
2023/07/29 07:42:14;;;;;;;4.68;1.40;;;;;;;18.29;100.00;100435.53;4986014;28;20750;-75
2023/07/29 07:44:40;;;;;;;8.80;2.88;;;;;;;18.53;100.00;100433.50;4983885;28;20062;-74
2023/07/29 07:47:07;;;;;;;7.97;2.40;;;;;;;18.46;100.00;100425.44;4988822;28;20137;-74
2023/07/29 07:49:33;;;;;;;8.23;3.55;;;;;;;18.59;100.00;100426.72;4986199;28;20597;-75
2023/07/29 07:52:00;;;;;;;4.38;1.73;;;;;;;18.49;100.00;100422.41;4969638;28;20589;-72
2023/07/29 07:54:26;;;;;;;2.63;1.20;;;;;;;18.50;100.00;100435.22;4986200;28;20046;-73
2023/07/29 07:56:53;;;;;;;6.45;2.15;;;;;;;18.65;100.00;100427.63;4984356;28;20137;-74
2023/07/29 07:59:19;;;;;;;3.78;1.65;;;;;;;18.55;100.00;100426.13;4987955;28;21772;-73
2023/07/29 08:01:46;;;;;;;3.95;1.58;;;;;;;18.46;100.00;100412.13;4985781;28;20046;-73
2023/07/29 08:04:13;;;;;;;7.80;2.38;;;;;;;18.63;100.00;100416.06;4985949;28;20108;-73
2023/07/29 08:06:40;;;;;;;5.88;1.77;;;;;;;18.48;100.00;100418.06;4969505;28;20458;-73
2023/07/29 08:09:06;;;;;;;7.07;2.45;;;;;;;18.66;100.00;100419.94;4987332;28;20050;-73
2023/07/29 08:11:33;;;;;;;5.80;2.67;;;;;;;18.76;100.00;100413.03;4984791;28;20057;-73
2023/07/29 08:13:59;;;;;;;5.53;2.20;;;;;;;18.72;100.00;100413.22;4984980;28;20051;-73
2023/07/29 08:16:26;;;;;;;3.53;1.58;;;;;;;18.66;100.00;100419.94;4985491;28;20125;-73
2023/07/29 08:18:53;;;;;;;4.80;2.17;;;;;;;18.66;100.00;100417.13;4988737;28;20049;-74
2023/07/29 08:21:19;;;;;;;3.75;1.42;;;;;;;18.74;100.00;100413.50;4986679;28;20109;-73
2023/07/29 08:23:46;;;;;;;4.05;1.70;;;;;;;18.84;100.00;100419.88;4986045;28;20105;-74
2023/07/29 08:26:12;;;;;;;5.28;1.77;;;;;;;19.06;100.00;100414.66;4986516;28;20078;-73
2023/07/29 08:28:40;;;;;;;3.53;1.50;;;;;;;18.92;100.00;100421.84;4988165;28;20054;-74
2023/07/29 08:31:06;;;;;;;4.25;1.52;;;;;;;18.84;100.00;100417.03;4986184;28;20105;-74
2023/07/29 08:33:34;;;;;;;3.30;1.58;;;;;;;18.96;100.00;100424.44;4993043;28;20050;-74
2023/07/29 08:36:02;;;;;;;1.52;1.00;;;;;;;18.85;100.00;100410.16;4986818;28;20518;-74
2023/07/29 08:38:28;;;;;;;5.43;2.13;;;;;;;19.11;100.00;100417.56;4991654;28;20054;-73
2023/07/29 08:41:04;;;;;;;2.92;1.10;;;;;;;19.29;100.00;100425.09;4991624;28;20138;-75
2023/07/29 08:43:32;;;;;;;3.75;1.67;;;;;;;19.51;100.00;100422.72;4986307;28;20108;-73
2023/07/29 08:46:00;;;;;;;1.85;1.10;;;;;;;19.40;100.00;100433.75;4978240;28;20117;-73
2023/07/29 08:48:37;;;;;;;4.68;1.02;;;;;;;19.49;100.00;100413.97;4975543;28;20189;-73
2023/07/29 08:51:04;;;;;;;2.40;0.93;;;;;;;19.66;100.00;100418.63;4971912;28;20140;-74
2023/07/29 08:53:34;;;;;;;1.45;0.57;;;;;;;19.86;100.00;100412.28;4988010;28;20062;-75
2023/07/29 08:56:01;;;;;;;4.80;0.98;;;;;;;19.86;100.00;100405.84;4986290;28;20092;-73
2023/07/29 08:58:29;;;;;;;3.17;1.60;;;;;;;20.13;100.00;100423.22;4987880;28;20054;-73
2023/07/29 09:00:55;;;;;;;5.65;1.40;;;;;;;20.37;100.00;100415.41;4984973;28;20051;-74
2023/07/29 09:03:22;;;;;;;2.28;0.70;;;;;;;20.22;100.00;100411.84;4988805;28;20125;-73
2023/07/29 09:05:50;;;;;;;1.83;1.10;;;;;;;20.21;100.00;100404.63;4988533;28;20058;-74
2023/07/29 09:08:17;;;;;;;1.65;0.98;;;;;;;20.27;100.00;100401.91;4973138;28;20093;-74
2023/07/29 09:10:44;;;;;;;2.42;1.30;;;;;;;20.50;100.00;100384.78;4969971;28;20167;-73
2023/07/29 09:13:10;;;;;;;4.78;1.60;;;;;;;20.78;100.00;100394.38;4988827;28;20082;-74
2023/07/29 09:15:37;;;;;;;2.95;1.55;;;;;;;21.04;100.00;100386.75;4988592;28;20538;-73
2023/07/29 09:18:19;;;;;;;0.98;0.75;;;;;;;20.96;100.00;100387.69;4989339;28;20057;-74
2023/07/29 09:20:47;;;;;;;1.30;1.08;;;;;;;21.05;100.00;100402.44;4987942;28;20899;-73
2023/07/29 09:23:14;;;;;;;1.30;0.95;;;;;;;20.81;100.00;100395.44;4987026;28;20108;-73
2023/07/29 09:25:41;;;;;;;2.67;1.15;;;;;;;20.87;100.00;100401.94;4981331;28;20160;-74
2023/07/29 09:28:10;;;;;;;3.72;1.38;;;;;;;20.91;100.00;100408.91;4988214;28;20522;-74
2023/07/29 09:30:42;;;;;;;2.20;1.02;;;;;;;20.86;100.00;100401.13;4972920;28;20042;-73
2023/07/29 09:33:09;;;;;;;3.55;0.80;;;;;;;20.76;100.00;100401.81;4990755;28;20058;-74
2023/07/29 09:35:37;;;;;;;0.70;0.70;;;;;;;20.74;100.00;100412.81;4981692;28;20050;-74
2023/07/29 09:38:05;;;;;;;2.92;1.52;;;;;;;20.96;100.00;100393.34;4990987;28;20105;-74
2023/07/29 09:40:40;;;;;;;1.85;1.10;;;;;;;21.13;100.00;100405.59;4994571;28;20042;-73
2023/07/29 09:43:09;;;;;;;3.67;1.85;;;;;;;21.29;100.00;100399.31;4987138;28;20051;-76
2023/07/29 09:45:37;;;;;;;4.00;1.70;;;;;;;21.34;100.00;100407.09;4989910;28;20056;-75
2023/07/29 09:48:09;;;;;;;3.92;2.20;;;;;;;21.48;100.00;100398.50;4987992;28;20061;-75
2023/07/29 09:50:36;;;;;;;1.92;1.40;;;;;;;21.62;100.00;100396.81;4989979;28;20042;-75
2023/07/29 09:53:03;;;;;;;3.83;1.80;;;;;;;21.46;100.00;100403.09;4989136;28;20061;-76
2023/07/29 09:55:33;;;;;;;3.83;1.80;;;;;;;21.55;100.00;100406.53;4989610;28;20441;-77
2023/07/29 09:58:02;;;;;;;1.08;0.98;;;;;;;21.10;100.00;100406.59;4990887;28;20919;-73
2023/07/29 10:00:30;;;;;;;2.55;1.13;;;;;;;20.98;100.00;100408.50;4990315;28;20085;-73
2023/07/29 10:02:58;;;;;;;3.78;1.85;;;;;;;21.04;100.00;100409.38;4988363;28;20447;-73
2023/07/29 10:05:28;;;;;;;6.18;3.55;;;;;;;21.09;100.00;100428.41;4985866;28;20046;-73
2023/07/29 10:07:56;;;;;;;1.40;0.73;;;;;;;20.75;100.00;100414.34;4984873;28;20522;-73
2023/07/29 10:10:23;;;;;;;2.50;1.70;;;;;;;20.95;100.00;100422.84;4972813;28;20441;-73
2023/07/29 10:12:50;;;;;;;1.52;0.98;;;;;;;20.93;100.00;100420.50;4987826;28;20050;-73
2023/07/29 10:15:17;;;;;;;1.52;1.08;;;;;;;20.94;100.00;100413.63;4988799;28;20050;-73
2023/07/29 10:17:45;;;;;;;1.83;0.88;;;;;;;20.71;100.00;100434.34;4989492;28;20568;-74
2023/07/29 10:20:15;;;;;;;6.00;1.90;;;;;;;20.76;100.00;100418.75;4989313;28;20530;-73
2023/07/29 10:22:46;;;;;;;6.10;1.67;;;;;;;20.94;100.00;100419.25;4987593;28;20046;-73
2023/07/29 10:25:17;;;;;;;3.70;1.10;;;;;;;20.76;100.00;100425.16;4971305;28;20054;-73
2023/07/29 10:27:47;;;;;;;1.83;1.30;;;;;;;20.70;100.00;100427.16;4988849;28;20058;-74
2023/07/29 10:30:14;;;;;;;2.00;1.50;;;;;;;20.89;100.00;100422.75;4977420;28;22321;-73
2023/07/29 10:32:45;;;;;;;2.67;1.70;;;;;;;20.71;100.00;100419.44;4981012;28;20085;-73
2023/07/29 10:35:13;;;;;;;3.85;1.98;;;;;;;21.11;100.00;100425.88;4986950;28;20474;-74
2023/07/29 10:37:40;;;;;;;5.72;2.13;;;;;;;21.31;100.00;100408.88;4984044;28;20478;-74
2023/07/29 10:40:08;;;;;;;7.82;2.38;;;;;;;21.43;100.00;100389.97;4987160;28;20524;-74
2023/07/29 10:42:36;;;;;;;6.93;2.90;;;;;;;21.55;100.00;100402.94;4970562;28;20720;-74
2023/07/29 10:45:20;;;;;;;4.40;2.33;;;;;;;21.61;100.00;100401.69;4988030;28;20132;-73
2023/07/29 10:47:48;;;;;;;1.00;0.90;;;;;;;21.80;100.00;100405.75;4972999;28;20054;-74
2023/07/29 10:50:21;;;;;;;4.75;2.25;;;;;;;21.86;100.00;100403.75;4989044;28;20570;-74
2023/07/29 10:52:51;;;;;;;5.28;2.20;;;;;;;21.94;100.00;100404.06;4985934;28;20042;-75
2023/07/29 10:55:38;;;;;;;5.85;3.15;;;;;;;22.09;100.00;100402.63;4989155;28;20108;-75
2023/07/29 10:58:11;;;;;;;3.63;1.77;;;;;;;22.02;100.00;100393.81;4982228;28;20790;-75
2023/07/29 11:00:38;;;;;;;6.05;3.00;;;;;;;22.14;100.00;100393.38;4987784;28;20050;-75
2023/07/29 11:03:06;;;;;;;6.90;3.50;;;;;;;22.37;100.00;100390.75;4986622;28;20549;-74
2023/07/29 11:05:53;;;;;;;5.32;3.30;;;;;;;22.41;100.00;100385.59;4985657;28;20061;-74
2023/07/29 11:08:29;;;;;;;4.88;2.45;;;;;;;22.40;100.00;100398.19;4987327;28;20139;-74
2023/07/29 11:11:01;;;;;;;4.88;2.67;;;;;;;22.46;100.00;100393.34;4985290;28;20050;-72
2023/07/29 11:13:33;;;;;;;4.70;2.92;;;;;;;22.75;100.00;100384.47;4989241;28;20053;-72
2023/07/29 11:16:01;;;;;;;4.75;2.40;;;;;;;22.68;100.00;100393.47;4989767;28;20057;-73